Time;durP1;ratioP1;P1;durP2;ratioP2;P2;SDS_P1;SDS_P2;PMS_P1;PMS_P2;Temp;Humidity;BMP_temperature;BMP_pressure;BME280_temperature;BME280_humidity;BME280_pressure;Samples;Min_cycle;Max_cycle;Signal;HPM_P1;HPM_P2
2023/12/09 00:00:17;;;;;;;101.97;26.27;;;1.70;99.90;;;;;;5076600;28;20173;-49
2023/12/09 00:02:43;;;;;;;99.37;24.20;;;1.80;99.90;;;;;;5095523;28;20189;-49
2023/12/09 00:05:08;;;;;;;130.40;26.97;;;1.80;99.90;;;;;;5094993;28;20463;-49
2023/12/09 00:07:35;;;;;;;118.57;26.07;;;1.70;99.90;;;;;;5094947;28;20643;-50
2023/12/09 00:10:01;;;;;;;101.37;24.90;;;1.80;99.90;;;;;;5095239;28;20448;-49
2023/12/09 00:12:27;;;;;;;107.60;26.40;;;1.80;99.90;;;;;;5095249;28;20190;-49
2023/12/09 00:14:52;;;;;;;100.33;25.40;;;1.80;99.90;;;;;;5095326;28;20417;-49
2023/12/09 00:17:18;;;;;;;109.80;25.83;;;1.80;99.90;;;;;;5095238;28;20177;-49
2023/12/09 00:19:43;;;;;;;93.97;24.97;;;1.70;99.90;;;;;;5094923;28;20663;-49
2023/12/09 00:22:09;;;;;;;113.33;25.97;;;1.70;99.90;;;;;;5095027;28;20612;-49
2023/12/09 00:24:34;;;;;;;100.77;27.37;;;1.70;99.90;;;;;;5095116;28;20658;-49
2023/12/09 00:27:00;;;;;;;89.90;25.07;;;1.70;99.90;;;;;;5094557;28;20592;-49
2023/12/09 00:29:25;;;;;;;107.03;26.80;;;1.80;99.90;;;;;;5094743;28;20638;-49
2023/12/09 00:31:51;;;;;;;106.40;24.97;;;1.90;99.90;;;;;;5095036;28;20178;-49
2023/12/09 00:34:16;;;;;;;108.43;28.80;;;1.90;99.90;;;;;;5094731;28;20189;-49
2023/12/09 00:36:42;;;;;;;127.47;27.77;;;1.80;99.90;;;;;;5094487;28;20183;-49
2023/12/09 00:39:07;;;;;;;98.93;25.10;;;1.80;99.90;;;;;;5094754;28;20177;-49
2023/12/09 00:41:33;;;;;;;93.93;24.00;;;1.80;99.90;;;;;;5094513;28;20189;-49
2023/12/09 00:43:58;;;;;;;117.40;26.70;;;1.90;99.90;;;;;;5094729;28;20242;-50
2023/12/09 00:46:24;;;;;;;99.07;25.57;;;1.90;99.90;;;;;;5094554;28;20205;-50
2023/12/09 00:48:49;;;;;;;101.30;25.63;;;1.90;99.90;;;;;;5094538;28;20181;-49
2023/12/09 00:51:15;;;;;;;105.60;26.93;;;1.80;99.90;;;;;;5094425;28;20173;-50
2023/12/09 00:53:41;;;;;;;97.37;25.73;;;1.80;99.90;;;;;;5094326;28;20181;-50
2023/12/09 00:56:07;;;;;;;124.77;24.70;;;1.90;99.90;;;;;;5094516;28;20236;-49
2023/12/09 00:58:32;;;;;;;92.90;24.30;;;1.80;99.90;;;;;;5094456;28;20529;-50
2023/12/09 01:00:58;;;;;;;109.23;26.83;;;1.90;99.90;;;;;;5094248;28;20446;-49
2023/12/09 01:03:24;;;;;;;81.33;24.50;;;1.90;99.90;;;;;;5094281;28;20188;-49
2023/12/09 01:05:49;;;;;;;109.87;24.87;;;2.00;99.90;;;;;;5093885;28;20237;-49
2023/12/09 01:08:15;;;;;;;98.70;24.90;;;2.00;99.90;;;;;;5093873;28;20174;-49
2023/12/09 01:10:40;;;;;;;91.97;23.77;;;2.00;99.90;;;;;;5094093;28;20182;-49
2023/12/09 01:13:06;;;;;;;114.00;26.37;;;1.90;99.90;;;;;;5093822;28;20184;-49
2023/12/09 01:15:32;;;;;;;82.23;24.13;;;1.90;99.90;;;;;;5093562;28;20267;-49
2023/12/09 01:17:57;;;;;;;103.00;26.17;;;1.90;99.90;;;;;;5093853;28;20182;-49
2023/12/09 01:20:24;;;;;;;107.70;25.37;;;1.90;99.90;;;;;;5094096;28;20642;-49
2023/12/09 01:22:50;;;;;;;106.40;24.60;;;1.90;99.90;;;;;;5093846;28;20521;-49
2023/12/09 01:25:15;;;;;;;106.50;25.60;;;2.00;99.90;;;;;;5094026;28;20466;-49
2023/12/09 01:27:41;;;;;;;97.23;25.70;;;2.00;99.90;;;;;;5093117;28;20272;-49
2023/12/09 01:30:07;;;;;;;92.67;24.10;;;2.00;99.90;;;;;;5093546;28;20185;-49
2023/12/09 01:32:33;;;;;;;112.73;26.20;;;2.00;99.90;;;;;;5093507;28;20658;-49
2023/12/09 01:34:58;;;;;;;137.93;28.03;;;2.00;99.90;;;;;;5093371;28;20431;-50
2023/12/09 01:37:24;;;;;;;95.37;24.20;;;2.00;99.90;;;;;;5093338;28;20622;-49
2023/12/09 01:39:49;;;;;;;91.00;23.13;;;2.10;99.90;;;;;;5093732;28;20203;-49
2023/12/09 01:42:15;;;;;;;103.20;25.70;;;2.10;99.90;;;;;;5093611;28;20173;-49
2023/12/09 01:44:41;;;;;;;101.60;24.23;;;2.10;99.90;;;;;;5093506;28;20647;-49
2023/12/09 01:47:07;;;;;;;103.40;25.77;;;2.10;99.90;;;;;;5093611;28;20178;-49
2023/12/09 01:49:33;;;;;;;100.67;25.97;;;2.20;99.90;;;;;;5093669;28;20659;-49
2023/12/09 01:52:00;;;;;;;108.50;26.90;;;2.20;99.90;;;;;;5093439;28;20426;-49
2023/12/09 01:54:26;;;;;;;93.63;23.63;;;2.10;99.90;;;;;;5093316;28;20741;-49
2023/12/09 01:56:52;;;;;;;104.60;24.63;;;2.20;99.90;;;;;;5093468;28;20411;-49
2023/12/09 01:59:18;;;;;;;113.47;24.97;;;2.30;99.90;;;;;;5093397;28;20412;-50
2023/12/09 02:01:44;;;;;;;149.87;27.40;;;2.20;99.90;;;;;;5093561;28;20465;-49
2023/12/09 02:04:10;;;;;;;109.83;24.90;;;2.10;99.90;;;;;;5093483;28;20900;-49
2023/12/09 02:06:36;;;;;;;123.87;27.80;;;2.20;99.90;;;;;;5092775;28;20488;-49
2023/12/09 02:09:02;;;;;;;109.13;26.47;;;2.10;99.90;;;;;;5093030;28;20488;-50
2023/12/09 02:11:31;;;;;;;128.30;26.50;;;2.10;99.90;;;;;;5093406;28;20192;-49
2023/12/09 02:14:10;;;;;;;104.40;27.07;;;2.10;99.90;;;;;;5093166;28;20414;-49
2023/12/09 02:16:47;;;;;;;116.63;25.40;;;2.20;99.90;;;;;;5093065;28;20459;-50
2023/12/09 02:19:14;;;;;;;112.43;26.00;;;2.20;99.90;;;;;;5093275;28;20506;-49
2023/12/09 02:22:03;;;;;;;105.00;24.53;;;2.20;99.90;;;;;;5093064;28;20403;-49
2023/12/09 02:24:29;;;;;;;133.90;27.80;;;2.10;99.90;;;;;;5093580;28;20426;-49
2023/12/09 02:27:07;;;;;;;111.97;25.57;;;2.20;99.90;;;;;;5093198;28;20972;-50
2023/12/09 02:29:41;;;;;;;115.33;28.10;;;2.20;99.90;;;;;;5093149;28;20498;-50
2023/12/09 02:32:08;;;;;;;129.73;27.70;;;2.20;99.90;;;;;;5092876;28;20530;-49
2023/12/09 02:34:38;;;;;;;98.37;25.53;;;2.20;99.90;;;;;;5093044;28;20420;-49
2023/12/09 02:37:05;;;;;;;104.43;27.13;;;2.20;99.90;;;;;;5092959;28;20480;-50
2023/12/09 02:39:31;;;;;;;127.07;27.10;;;2.20;99.90;;;;;;5093771;28;20411;-50
2023/12/09 02:41:58;;;;;;;133.07;27.70;;;2.30;99.90;;;;;;5097236;28;20817;-50
2023/12/09 02:44:24;;;;;;;105.30;27.80;;;2.30;99.90;;;;;;5097006;28;20496;-50
2023/12/09 02:46:56;;;;;;;129.33;28.20;;;2.30;99.90;;;;;;5096843;28;20781;-49
2023/12/09 02:49:23;;;;;;;147.77;26.10;;;2.30;99.90;;;;;;5096924;28;20417;-49
2023/12/09 02:51:49;;;;;;;106.50;26.53;;;2.30;99.90;;;;;;5096950;28;20415;-50
2023/12/09 02:54:14;;;;;;;151.83;29.00;;;2.30;99.90;;;;;;5096776;28;20942;-49
2023/12/09 02:56:40;;;;;;;125.00;28.53;;;2.40;99.90;;;;;;5096896;28;20186;-49
2023/12/09 02:59:05;;;;;;;119.17;28.13;;;2.30;99.90;;;;;;5096388;28;20180;-49
2023/12/09 03:01:31;;;;;;;131.63;28.83;;;2.40;99.90;;;;;;5096528;28;20182;-49
2023/12/09 03:03:56;;;;;;;113.50;27.90;;;2.50;99.90;;;;;;5096585;28;20181;-50
2023/12/09 03:06:22;;;;;;;115.10;27.80;;;2.40;99.90;;;;;;5096037;28;20251;-49
2023/12/09 03:08:48;;;;;;;136.27;28.70;;;2.40;99.90;;;;;;5096492;28;20214;-50
2023/12/09 03:11:13;;;;;;;129.17;27.87;;;2.40;99.90;;;;;;5096112;28;20186;-49
2023/12/09 03:13:39;;;;;;;132.27;28.17;;;2.40;99.90;;;;;;5096196;28;20215;-49
2023/12/09 03:16:04;;;;;;;146.47;28.70;;;2.40;99.90;;;;;;5096362;28;20188;-50
2023/12/09 03:18:30;;;;;;;117.50;29.43;;;2.40;99.90;;;;;;5096400;28;20192;-50
2023/12/09 03:20:56;;;;;;;123.00;28.13;;;2.40;99.90;;;;;;5096364;28;20407;-50
2023/12/09 03:23:21;;;;;;;134.63;27.73;;;2.40;99.90;;;;;;5096477;28;20180;-50
2023/12/09 03:25:47;;;;;;;145.80;29.60;;;2.40;99.90;;;;;;5096006;28;20208;-50
2023/12/09 03:28:13;;;;;;;122.47;27.80;;;2.40;99.90;;;;;;5096097;28;20177;-49
2023/12/09 03:30:38;;;;;;;108.37;27.27;;;2.40;99.90;;;;;;5096059;28;20320;-49
2023/12/09 03:33:04;;;;;;;109.77;27.30;;;2.40;99.90;;;;;;5095874;28;20414;-49
2023/12/09 03:35:29;;;;;;;136.67;28.93;;;2.40;99.90;;;;;;5096012;28;20182;-49
2023/12/09 03:37:55;;;;;;;115.20;28.03;;;2.40;99.90;;;;;;5095551;28;20192;-50
2023/12/09 03:40:20;;;;;;;163.93;30.07;;;2.50;99.90;;;;;;5095840;28;20182;-50
2023/12/09 03:42:46;;;;;;;149.93;30.10;;;2.50;99.90;;;;;;5095881;28;20194;-50
2023/12/09 03:45:12;;;;;;;124.13;28.73;;;2.50;99.90;;;;;;5095669;28;20726;-49
2023/12/09 03:47:37;;;;;;;118.83;28.40;;;2.60;99.90;;;;;;5095505;28;20214;-49
2023/12/09 03:50:03;;;;;;;173.93;32.27;;;2.50;99.90;;;;;;5095491;28;20225;-49
2023/12/09 03:52:28;;;;;;;125.50;29.20;;;2.60;99.90;;;;;;5095085;28;20177;-49
2023/12/09 03:54:54;;;;;;;129.40;28.33;;;2.60;99.90;;;;;;5095485;28;20256;-49
2023/12/09 03:57:19;;;;;;;113.53;28.90;;;2.60;99.90;;;;;;5095446;28;20224;-49
2023/12/09 03:59:45;;;;;;;112.27;27.10;;;2.60;99.90;;;;;;5095159;28;20180;-49
2023/12/09 04:02:10;;;;;;;123.13;29.30;;;2.70;99.90;;;;;;5095442;28;20177;-49
2023/12/09 04:04:40;;;;;;;122.37;28.70;;;2.70;99.90;;;;;;5095206;28;20176;-49
2023/12/09 04:07:06;;;;;;;111.70;28.17;;;2.70;99.90;;;;;;5095072;28;20235;-50
2023/12/09 04:09:31;;;;;;;124.73;26.80;;;2.70;99.90;;;;;;5095145;28;20419;-49
2023/12/09 04:11:57;;;;;;;107.40;27.30;;;2.70;99.90;;;;;;5095315;28;20226;-49
2023/12/09 04:14:22;;;;;;;123.77;28.40;;;2.70;99.90;;;;;;5095095;28;20183;-50
2023/12/09 04:16:48;;;;;;;123.60;27.27;;;2.70;99.90;;;;;;5095096;28;20180;-49
2023/12/09 04:19:13;;;;;;;118.53;28.00;;;2.90;99.90;;;;;;5095115;28;20185;-49
2023/12/09 04:21:39;;;;;;;121.97;31.80;;;2.90;99.90;;;;;;5094892;28;20263;-50
2023/12/09 04:24:05;;;;;;;119.67;29.53;;;3.00;99.90;;;;;;5095129;28;20181;-50
2023/12/09 04:26:30;;;;;;;147.03;33.47;;;3.00;99.90;;;;;;5094793;28;20306;-49
2023/12/09 04:28:56;;;;;;;118.73;28.93;;;3.10;99.90;;;;;;5094825;28;20173;-50
2023/12/09 04:31:21;;;;;;;104.93;26.67;;;3.10;99.90;;;;;;5094798;28;20269;-49
2023/12/09 04:33:47;;;;;;;160.87;31.53;;;3.10;99.90;;;;;;5094829;28;20181;-50
2023/12/09 04:36:13;;;;;;;119.67;30.47;;;3.20;99.90;;;;;;5094409;28;20279;-49
2023/12/09 04:38:39;;;;;;;116.87;29.40;;;3.10;99.90;;;;;;5094813;28;20274;-50
2023/12/09 04:41:05;;;;;;;133.10;31.53;;;3.20;99.90;;;;;;5094557;28;20422;-50
2023/12/09 04:43:30;;;;;;;104.73;29.13;;;3.20;99.90;;;;;;5094833;28;20180;-50
2023/12/09 04:45:56;;;;;;;134.53;30.47;;;3.20;99.90;;;;;;5094766;28;20213;-50
2023/12/09 04:48:21;;;;;;;124.80;28.93;;;3.20;99.90;;;;;;5094694;28;20271;-49
2023/12/09 04:50:47;;;;;;;118.33;29.80;;;3.20;99.90;;;;;;5094769;28;20177;-50
2023/12/09 04:53:13;;;;;;;128.67;31.37;;;3.20;99.90;;;;;;5094057;28;20169;-49
2023/12/09 04:55:38;;;;;;;113.60;30.83;;;3.20;99.90;;;;;;5094232;28;20419;-49
2023/12/09 04:58:04;;;;;;;118.80;31.60;;;3.20;99.90;;;;;;5094419;28;20303;-50
2023/12/09 05:00:29;;;;;;;125.50;30.17;;;3.30;99.90;;;;;;5093892;28;20550;-50
2023/12/09 05:02:55;;;;;;;148.73;32.43;;;3.30;99.90;;;;;;5093876;28;20627;-50
2023/12/09 05:05:20;;;;;;;109.57;32.07;;;3.30;99.90;;;;;;5093738;28;20321;-50
2023/12/09 05:07:46;;;;;;;121.90;33.00;;;3.50;99.90;;;;;;5094016;28;20165;-50
2023/12/09 05:10:12;;;;;;;126.87;32.37;;;3.50;99.90;;;;;;5093775;28;20177;-49
2023/12/09 05:12:40;;;;;;;115.70;31.43;;;3.50;99.90;;;;;;5093994;28;20175;-49
2023/12/09 05:15:07;;;;;;;113.63;31.10;;;3.60;99.90;;;;;;5093925;28;20419;-50
2023/12/09 05:17:32;;;;;;;129.60;31.70;;;3.60;99.90;;;;;;5094040;28;20428;-50
2023/12/09 05:19:58;;;;;;;148.63;32.93;;;3.50;99.90;;;;;;5093764;28;20411;-50
2023/12/09 05:22:24;;;;;;;117.13;31.00;;;3.60;99.90;;;;;;5093829;28;20179;-50
2023/12/09 05:24:51;;;;;;;124.17;31.97;;;3.60;99.90;;;;;;5094082;28;20182;-50
2023/12/09 05:27:17;;;;;;;117.37;30.87;;;3.60;99.90;;;;;;5093884;28;20420;-49
2023/12/09 05:29:43;;;;;;;120.80;31.13;;;3.60;99.90;;;;;;5094103;28;20483;-50
2023/12/09 05:32:09;;;;;;;122.57;30.50;;;3.60;99.90;;;;;;5093703;28;20917;-49
2023/12/09 05:34:34;;;;;;;125.00;33.47;;;3.60;99.90;;;;;;5093472;28;20415;-49
2023/12/09 05:37:00;;;;;;;123.87;31.63;;;3.60;99.90;;;;;;5093727;28;20190;-49
2023/12/09 05:39:25;;;;;;;127.60;33.90;;;3.60;99.90;;;;;;5093531;28;20654;-50
2023/12/09 05:41:51;;;;;;;130.30;33.43;;;3.70;99.90;;;;;;5093470;28;20254;-50
2023/12/09 05:44:17;;;;;;;136.57;32.80;;;3.70;99.90;;;;;;5093739;28;20177;-50
2023/12/09 05:46:42;;;;;;;111.43;32.40;;;3.80;99.90;;;;;;5093555;28;20455;-50
2023/12/09 05:49:08;;;;;;;128.87;35.10;;;3.80;99.90;;;;;;5093452;28;20650;-49
2023/12/09 05:51:34;;;;;;;124.43;32.60;;;3.80;99.90;;;;;;5093413;28;20187;-50
2023/12/09 05:53:59;;;;;;;130.20;32.73;;;3.80;99.90;;;;;;5093064;28;20191;-49
2023/12/09 05:56:25;;;;;;;114.57;31.53;;;3.80;99.90;;;;;;5093631;28;20192;-50
2023/12/09 05:58:50;;;;;;;125.07;33.50;;;3.80;99.90;;;;;;5093192;28;20178;-50
2023/12/09 06:01:16;;;;;;;130.90;34.80;;;3.80;99.90;;;;;;5093244;28;20181;-50
2023/12/09 06:03:42;;;;;;;123.63;33.70;;;4.00;99.90;;;;;;5093600;28;20189;-49
2023/12/09 06:06:07;;;;;;;133.57;32.77;;;4.00;99.90;;;;;;5093172;28;20842;-50
2023/12/09 06:08:33;;;;;;;127.00;34.03;;;3.90;99.90;;;;;;5093309;28;20276;-50
2023/12/09 06:10:59;;;;;;;129.30;34.67;;;4.00;99.90;;;;;;5093437;28;20177;-49
2023/12/09 06:13:24;;;;;;;125.70;33.53;;;4.10;99.90;;;;;;5093510;28;20208;-50
2023/12/09 06:15:50;;;;;;;134.27;35.27;;;4.10;99.90;;;;;;5097582;28;20191;-49
2023/12/09 06:18:15;;;;;;;134.43;34.37;;;4.10;99.90;;;;;;5097490;28;20177;-50
2023/12/09 06:20:41;;;;;;;121.87;34.10;;;4.20;99.90;;;;;;5097347;28;20188;-49
2023/12/09 06:23:08;;;;;;;115.90;32.17;;;4.10;99.90;;;;;;5097324;28;20177;-49
2023/12/09 06:25:34;;;;;;;116.80;33.47;;;4.10;99.90;;;;;;5097201;28;20216;-50
2023/12/09 06:28:00;;;;;;;121.37;33.30;;;4.00;99.90;;;;;;5095504;28;20422;-50
2023/12/09 06:30:25;;;;;;;134.33;34.27;;;4.10;99.90;;;;;;5095619;28;20207;-50
2023/12/09 06:32:51;;;;;;;139.00;34.60;;;4.10;99.90;;;;;;5095845;28;20904;-49
2023/12/09 06:35:16;;;;;;;121.63;32.87;;;4.10;99.90;;;;;;5095788;28;20195;-50
2023/12/09 06:37:42;;;;;;;115.67;32.37;;;4.10;99.90;;;;;;5095565;28;20208;-49
2023/12/09 06:40:09;;;;;;;119.30;34.00;;;4.00;99.90;;;;;;5095521;28;20681;-49
2023/12/09 06:42:36;;;;;;;109.33;31.73;;;4.00;99.90;;;;;;5095734;28;20192;-50
2023/12/09 06:45:02;;;;;;;117.53;34.07;;;4.00;99.90;;;;;;5095460;28;20874;-50
2023/12/09 06:47:28;;;;;;;120.40;33.83;;;4.10;99.90;;;;;;5094738;28;20415;-49
2023/12/09 06:49:54;;;;;;;132.87;32.97;;;4.10;99.90;;;;;;5095124;28;20464;-50
2023/12/09 06:52:19;;;;;;;118.20;34.03;;;4.10;99.90;;;;;;5095595;28;20181;-50
2023/12/09 06:54:45;;;;;;;113.70;31.30;;;4.10;99.90;;;;;;5094440;28;20551;-49
2023/12/09 06:57:10;;;;;;;130.63;32.77;;;4.10;99.90;;;;;;5094966;28;20189;-50
2023/12/09 06:59:36;;;;;;;104.97;31.10;;;4.10;99.90;;;;;;5095275;28;20177;-49
2023/12/09 07:02:02;;;;;;;115.90;30.67;;;4.10;99.90;;;;;;5095515;28;20645;-50
2023/12/09 07:04:27;;;;;;;144.70;34.03;;;4.10;99.90;;;;;;5095175;28;20334;-50
2023/12/09 07:06:53;;;;;;;115.50;31.57;;;4.10;99.90;;;;;;5094070;28;20241;-50
2023/12/09 07:09:18;;;;;;;112.57;29.93;;;4.10;99.90;;;;;;5095012;28;20181;-50
2023/12/09 07:11:44;;;;;;;116.73;31.20;;;4.10;99.90;;;;;;5095161;28;20238;-49
2023/12/09 07:14:09;;;;;;;108.43;30.23;;;4.10;99.90;;;;;;5095399;28;20517;-49
2023/12/09 07:16:37;;;;;;;126.33;32.70;;;4.10;99.90;;;;;;5094812;28;20205;-49
2023/12/09 07:19:02;;;;;;;122.10;34.67;;;4.20;99.90;;;;;;5094772;28;20646;-49
2023/12/09 07:21:28;;;;;;;128.47;32.27;;;4.20;99.90;;;;;;5094768;28;20502;-49
2023/12/09 07:23:55;;;;;;;102.33;31.27;;;4.30;99.90;;;;;;5094811;28;20646;-49
2023/12/09 07:26:21;;;;;;;102.40;30.27;;;4.20;99.90;;;;;;5093621;28;20209;-50
2023/12/09 07:28:46;;;;;;;104.07;30.17;;;4.30;99.90;;;;;;5094428;28;20415;-49
2023/12/09 07:31:12;;;;;;;92.73;29.20;;;4.40;99.90;;;;;;5094729;28;20259;-49
2023/12/09 07:33:38;;;;;;;108.10;31.07;;;4.30;99.90;;;;;;5095168;28;20184;-49
2023/12/09 07:36:04;;;;;;;95.80;29.43;;;4.30;99.90;;;;;;5094014;28;20288;-49
2023/12/09 07:38:29;;;;;;;91.00;30.00;;;4.30;99.90;;;;;;5094270;28;20235;-49
2023/12/09 07:40:55;;;;;;;95.80;28.77;;;4.20;99.90;;;;;;5093872;28;20184;-49
2023/12/09 07:43:20;;;;;;;105.70;31.17;;;4.20;99.90;;;;;;5094635;28;20196;-50
2023/12/09 07:45:46;;;;;;;100.93;30.80;;;4.20;99.90;;;;;;5093601;28;20628;-49
2023/12/09 07:48:11;;;;;;;102.13;31.00;;;4.20;99.90;;;;;;5093606;28;20553;-49
2023/12/09 07:50:37;;;;;;;93.70;29.17;;;4.30;99.90;;;;;;5094435;28;20199;-49
2023/12/09 07:53:03;;;;;;;91.37;29.07;;;4.30;99.90;;;;;;5093937;28;20174;-48
2023/12/09 07:55:28;;;;;;;98.43;28.47;;;4.30;99.90;;;;;;5093892;28;20185;-49
2023/12/09 07:57:54;;;;;;;82.13;27.97;;;4.30;99.90;;;;;;5093778;28;20250;-49
2023/12/09 08:00:19;;;;;;;88.40;27.37;;;4.30;99.90;;;;;;5094412;28;20235;-49
2023/12/09 08:02:45;;;;;;;99.23;29.00;;;4.30;99.90;;;;;;5093864;28;20264;-49
2023/12/09 08:05:11;;;;;;;96.60;28.47;;;4.30;99.90;;;;;;5093683;28;20295;-49
2023/12/09 08:07:37;;;;;;;92.33;26.90;;;4.30;99.90;;;;;;5093652;28;20187;-49
2023/12/09 08:10:02;;;;;;;81.33;24.90;;;4.30;99.90;;;;;;5093956;28;20923;-49
2023/12/09 08:12:28;;;;;;;88.87;26.17;;;4.30;99.90;;;;;;5093589;28;20185;-50
2023/12/09 08:14:54;;;;;;;99.60;28.83;;;4.40;99.90;;;;;;5093141;28;20184;-49
2023/12/09 08:17:19;;;;;;;91.37;27.50;;;4.40;99.90;;;;;;5093892;28;20185;-49
2023/12/09 08:19:45;;;;;;;75.50;25.83;;;4.40;99.90;;;;;;5093282;28;20188;-49
2023/12/09 08:22:12;;;;;;;78.33;25.70;;;4.40;99.90;;;;;;5093204;28;20184;-49
2023/12/09 08:24:37;;;;;;;78.93;27.00;;;4.40;99.90;;;;;;5093402;28;20193;-50
2023/12/09 08:27:03;;;;;;;89.53;28.03;;;4.50;99.90;;;;;;5093556;28;20459;-50
2023/12/09 08:29:29;;;;;;;81.37;26.73;;;4.60;99.90;;;;;;5093180;28;20520;-50
2023/12/09 08:31:54;;;;;;;70.03;26.83;;;4.50;99.90;;;;;;5093335;28;20176;-49
2023/12/09 08:34:20;;;;;;;86.13;27.47;;;4.50;99.90;;;;;;5092918;28;20177;-49
2023/12/09 08:36:45;;;;;;;93.20;26.27;;;4.50;99.90;;;;;;5092626;28;20193;-50
2023/12/09 08:39:11;;;;;;;81.47;27.73;;;4.50;99.90;;;;;;5092159;28;20174;-50
2023/12/09 08:41:37;;;;;;;86.70;27.73;;;4.50;99.90;;;;;;5093343;28;20234;-50
2023/12/09 08:44:03;;;;;;;91.33;28.07;;;4.60;99.90;;;;;;5093043;28;20552;-50
2023/12/09 08:46:30;;;;;;;75.03;25.90;;;4.60;99.90;;;;;;5092453;28;20463;-50
2023/12/09 08:48:56;;;;;;;65.40;25.97;;;4.60;99.90;;;;;;5093099;28;20419;-50
2023/12/09 08:51:21;;;;;;;80.07;27.40;;;4.70;99.90;;;;;;5092961;28;20404;-50
2023/12/09 08:53:47;;;;;;;92.57;29.60;;;4.60;99.90;;;;;;5092849;28;20639;-50
2023/12/09 08:56:12;;;;;;;71.27;26.63;;;4.60;99.90;;;;;;5093127;28;20197;-50
2023/12/09 08:58:38;;;;;;;77.67;27.10;;;4.70;99.90;;;;;;5092727;28;20181;-50
2023/12/09 09:01:04;;;;;;;86.97;28.27;;;4.70;99.90;;;;;;5093274;28;20314;-50
2023/12/09 09:03:30;;;;;;;77.33;27.63;;;4.80;99.90;;;;;;5093011;28;20181;-50
2023/12/09 09:05:56;;;;;;;87.57;26.50;;;4.80;99.90;;;;;;5091826;28;20240;-50
2023/12/09 09:08:21;;;;;;;77.87;26.23;;;4.80;99.90;;;;;;5092461;28;20456;-50
2023/12/09 09:10:47;;;;;;;72.40;27.43;;;4.90;99.90;;;;;;5092412;28;20268;-50
2023/12/09 09:13:12;;;;;;;80.40;26.83;;;4.90;99.90;;;;;;5092453;28;20254;-51
2023/12/09 09:15:38;;;;;;;71.13;24.87;;;4.90;99.90;;;;;;5092884;28;20189;-51
2023/12/09 09:18:03;;;;;;;69.50;26.20;;;4.90;99.90;;;;;;5092522;28;20178;-51
2023/12/09 09:20:30;;;;;;;69.07;24.60;;;4.90;99.90;;;;;;5092431;28;20189;-50
2023/12/09 09:22:56;;;;;;;71.57;24.83;;;4.90;99.90;;;;;;5092515;28;20174;-50
2023/12/09 09:25:21;;;;;;;78.53;26.50;;;4.90;99.90;;;;;;5092118;28;20959;-51
2023/12/09 09:27:47;;;;;;;76.70;23.90;;;4.90;99.90;;;;;;5092204;28;20185;-50
2023/12/09 09:30:13;;;;;;;83.87;25.37;;;4.90;99.90;;;;;;5092148;28;20178;-50
2023/12/09 09:32:38;;;;;;;74.50;25.80;;;5.00;99.90;;;;;;5092332;28;20178;-50
2023/12/09 09:35:05;;;;;;;82.63;25.10;;;5.00;99.90;;;;;;5092165;28;20411;-50
2023/12/09 09:37:30;;;;;;;60.07;23.53;;;5.00;99.90;;;;;;5091658;28;20181;-51
2023/12/09 09:39:56;;;;;;;81.40;26.00;;;5.00;99.90;;;;;;5091811;28;20937;-51
2023/12/09 09:42:41;;;;;;;68.80;22.27;;;5.00;99.90;;;;;;5092417;28;20718;-51
2023/12/09 09:45:20;;;;;;;66.23;22.83;;;5.10;99.90;;;;;;5091547;28;20214;-51
2023/12/09 09:47:48;;;;;;;59.67;23.33;;;5.00;99.90;;;;;;5092326;28;20470;-51
2023/12/09 09:50:23;;;;;;;62.30;23.80;;;5.00;99.90;;;;;;5092031;28;20415;-51
2023/12/09 09:52:50;;;;;;;55.00;22.93;;;5.00;99.90;;;;;;5091823;28;20542;-49
2023/12/09 09:55:22;;;;;;;60.43;23.60;;;5.00;99.90;;;;;;5092087;28;20569;-49
2023/12/09 09:57:48;;;;;;;62.90;23.67;;;5.00;99.90;;;;;;5092350;28;20407;-49
2023/12/09 10:00:15;;;;;;;61.67;22.53;;;5.00;99.90;;;;;;5091618;28;20404;-49
2023/12/09 10:02:43;;;;;;;69.40;23.70;;;5.00;99.90;;;;;;5091917;28;20415;-50
2023/12/09 10:05:09;;;;;;;72.90;23.93;;;5.00;99.90;;;;;;5090901;28;20414;-50
2023/12/09 10:07:36;;;;;;;63.47;21.20;;;5.00;99.90;;;;;;5092324;28;20753;-50
2023/12/09 10:10:02;;;;;;;60.47;21.90;;;5.10;99.90;;;;;;5091929;28;20466;-50
2023/12/09 10:12:29;;;;;;;57.17;20.27;;;5.20;99.90;;;;;;5091737;28;20436;-50
2023/12/09 10:14:56;;;;;;;53.17;21.27;;;5.30;99.90;;;;;;5091830;28;20779;-50
2023/12/09 10:17:22;;;;;;;62.57;20.17;;;5.40;99.90;;;;;;5092357;28;20499;-50
2023/12/09 10:19:48;;;;;;;51.37;21.57;;;5.50;99.90;;;;;;5091211;28;20424;-50
2023/12/09 10:22:14;;;;;;;47.60;19.97;;;5.60;99.90;;;;;;5091517;28;20509;-50
2023/12/09 10:24:40;;;;;;;51.93;22.70;;;5.70;99.90;;;;;;5091736;28;20639;-49
2023/12/09 10:27:06;;;;;;;65.20;22.90;;;6.10;99.90;;;;;;5091709;28;20242;-50
2023/12/09 10:29:32;;;;;;;46.30;21.60;;;6.40;99.90;;;;;;5091536;28;20184;-50
2023/12/09 10:32:01;;;;;;;51.80;20.70;;;6.90;99.90;;;;;;5090894;28;20897;-50
2023/12/09 10:34:26;;;;;;;42.20;18.87;;;7.50;99.90;;;;;;5091783;28;20411;-49
2023/12/09 10:36:52;;;;;;;46.47;18.20;;;8.00;99.90;;;;;;5091327;28;20781;-48
2023/12/09 10:39:19;;;;;;;38.30;16.90;;;8.10;99.90;;;;;;5091673;28;20185;-49
2023/12/09 10:41:45;;;;;;;34.47;16.73;;;8.00;99.90;;;;;;5091350;28;20181;-49
2023/12/09 10:44:11;;;;;;;34.23;15.53;;;8.00;46.70;;;;;;5091102;28;20450;-51
2023/12/09 10:46:37;;;;;;;35.20;15.37;;;7.90;1.00;;;;;;5091541;28;20540;-50
2023/12/09 10:49:02;;;;;;;24.53;13.47;;;7.70;99.90;;;;;;5091753;28;20189;-50
2023/12/09 10:51:28;;;;;;;29.17;13.07;;;7.50;99.90;;;;;;5091650;28;20254;-51
2023/12/09 10:53:53;;;;;;;27.00;13.50;;;7.50;1.00;;;;;;5090987;28;20270;-50
2023/12/09 10:56:20;;;;;;;28.63;14.47;;;7.30;36.40;;;;;;5091737;28;20185;-50
2023/12/09 10:58:46;;;;;;;35.63;14.83;;;7.10;99.90;;;;;;5091360;28;20185;-57
2023/12/09 11:01:14;;;;;;;29.27;14.57;;;6.80;99.90;;;;;;5093173;28;20461;-51
2023/12/09 11:03:39;;;;;;;27.03;13.97;;;6.50;99.90;;;;;;5094991;28;20423;-51
2023/12/09 11:06:06;;;;;;;26.50;13.50;;;6.30;99.90;;;;;;5094883;28;20536;-50
2023/12/09 11:08:34;;;;;;;34.30;14.70;;;6.10;99.90;;;;;;5094526;28;20627;-50
2023/12/09 11:11:04;;;;;;;30.17;15.47;;;6.00;99.90;;;;;;5094534;28;20897;-50
2023/12/09 11:13:32;;;;;;;28.37;14.70;;;5.90;1.00;;;;;;5095201;28;20425;-49
2023/12/09 11:16:11;;;;;;;28.27;13.57;;;6.00;1.00;;;;;;5094553;28;21520;-50
2023/12/09 11:18:49;;;;;;;32.40;15.47;;;6.10;1.00;;;;;;5094323;28;20429;-50
2023/12/09 11:21:16;;;;;;;33.63;14.90;;;6.10;1.00;;;;;;5095213;28;20411;-49
2023/12/09 11:23:51;;;;;;;25.90;13.67;;;6.10;1.00;;;;;;5094265;28;20407;-49
2023/12/09 11:26:20;;;;;;;27.43;14.40;;;6.20;1.00;;;;;;5094251;28;20447;-49
2023/12/09 11:29:03;;;;;;;28.87;13.87;;;6.30;1.00;;;;;;5094570;28;20514;-49
2023/12/09 11:31:33;;;;;;;32.23;15.20;;;6.30;1.00;;;;;;5095021;28;20559;-49
2023/12/09 11:33:59;;;;;;;30.83;14.93;;;6.40;1.00;;;;;;5094977;28;20423;-49
2023/12/09 11:36:28;;;;;;;32.10;14.60;;;6.50;1.00;;;;;;5094043;28;20827;-49
2023/12/09 11:38:54;;;;;;;29.83;13.23;;;6.60;1.00;;;;;;5094137;28;20411;-49
2023/12/09 11:41:20;;;;;;;26.70;13.90;;;6.60;99.90;;;;;;5094491;28;20422;-49
2023/12/09 11:43:46;;;;;;;26.13;13.53;;;6.60;99.90;;;;;;5094163;28;20404;-49
2023/12/09 11:46:12;;;;;;;31.57;13.93;;;6.60;99.90;;;;;;5094351;28;20209;-49
2023/12/09 11:48:39;;;;;;;29.90;13.80;;;6.50;99.90;;;;;;5094586;28;20415;-50
2023/12/09 11:51:06;;;;;;;27.00;13.20;;;6.60;99.90;;;;;;5094683;28;20193;-49
2023/12/09 11:53:32;;;;;;;33.07;13.90;;;6.50;99.90;;;;;;5094162;28;20431;-49
2023/12/09 11:55:58;;;;;;;28.00;14.00;;;6.50;99.90;;;;;;5094142;28;20419;-49
2023/12/09 11:58:24;;;;;;;31.33;14.70;;;6.50;12.60;;;;;;5094290;28;20260;-50
2023/12/09 12:00:50;;;;;;;27.70;12.90;;;6.50;1.00;;;;;;5094092;28;20464;-50
2023/12/09 12:03:15;;;;;;;26.33;13.43;;;6.30;1.00;;;;;;5093512;28;20426;-49
2023/12/09 12:05:41;;;;;;;28.90;13.80;;;6.30;1.00;;;;;;5093417;28;20243;-50
2023/12/09 12:08:07;;;;;;;25.60;12.83;;;6.10;1.00;;;;;;5094017;28;20172;-50
2023/12/09 12:10:33;;;;;;;30.93;13.47;;;6.00;99.90;;;;;;5094044;28;20191;-50
2023/12/09 12:13:01;;;;;;;33.23;14.97;;;5.90;99.90;;;;;;5093900;28;20181;-50
2023/12/09 12:15:27;;;;;;;27.83;14.00;;;5.80;1.00;;;;;;5093253;28;20196;-50
2023/12/09 12:17:53;;;;;;;33.47;13.97;;;5.60;1.00;;;;;;5093530;28;20509;-49
2023/12/09 12:20:19;;;;;;;34.17;16.10;;;5.60;1.00;;;;;;5093714;28;20185;-50
2023/12/09 12:22:45;;;;;;;33.23;13.90;;;5.60;1.00;;;;;;5093640;28;20421;-50
2023/12/09 12:25:10;;;;;;;30.03;13.43;;;5.60;1.00;;;;;;5093316;28;20919;-50
2023/12/09 12:27:41;;;;;;;26.37;15.00;;;5.50;1.00;;;;;;5093317;28;20558;-50